sensor_id;sensor_type;location;lat;lon;timestamp;P1;durP1;ratioP1;P2;durP2;ratioP2
70102;SDS011;57470;50.034;15.256;2023-04-06T00:00:32;6.03;;;1.92;;
70102;SDS011;57470;50.034;15.256;2023-04-06T00:02:58;3.13;;;1.00;;
70102;SDS011;57470;50.034;15.256;2023-04-06T00:05:23;3.30;;;1.43;;
70102;SDS011;57470;50.034;15.256;2023-04-06T00:07:49;5.30;;;1.23;;
70102;SDS011;57470;50.034;15.256;2023-04-06T00:10:15;6.33;;;1.30;;
70102;SDS011;57470;50.034;15.256;2023-04-06T00:12:41;5.40;;;1.33;;
70102;SDS011;57470;50.034;15.256;2023-04-06T00:15:07;2.80;;;0.90;;
70102;SDS011;57470;50.034;15.256;2023-04-06T00:17:33;3.00;;;1.20;;
70102;SDS011;57470;50.034;15.256;2023-04-06T00:19:58;3.90;;;2.03;;
70102;SDS011;57470;50.034;15.256;2023-04-06T00:22:24;3.47;;;1.38;;
70102;SDS011;57470;50.034;15.256;2023-04-06T00:24:49;3.20;;;1.00;;
70102;SDS011;57470;50.034;15.256;2023-04-06T00:27:15;3.10;;;1.20;;
70102;SDS011;57470;50.034;15.256;2023-04-06T00:29:40;6.30;;;1.65;;
70102;SDS011;57470;50.034;15.256;2023-04-06T00:32:06;6.10;;;1.13;;
70102;SDS011;57470;50.034;15.256;2023-04-06T00:34:31;5.33;;;1.60;;
70102;SDS011;57470;50.034;15.256;2023-04-06T00:36:57;3.20;;;1.27;;
70102;SDS011;57470;50.034;15.256;2023-04-06T00:39:22;5.57;;;2.10;;
70102;SDS011;57470;50.034;15.256;2023-04-06T00:41:49;2.22;;;0.57;;
70102;SDS011;57470;50.034;15.256;2023-04-06T00:44:17;3.22;;;1.00;;
70102;SDS011;57470;50.034;15.256;2023-04-06T00:46:43;5.95;;;2.63;;
70102;SDS011;57470;50.034;15.256;2023-04-06T00:49:09;4.25;;;1.95;;
70102;SDS011;57470;50.034;15.256;2023-04-06T00:51:35;4.90;;;1.83;;
70102;SDS011;57470;50.034;15.256;2023-04-06T00:54:00;3.42;;;1.10;;
70102;SDS011;57470;50.034;15.256;2023-04-06T00:56:26;3.77;;;1.50;;
70102;SDS011;57470;50.034;15.256;2023-04-06T00:58:52;4.00;;;1.93;;
70102;SDS011;57470;50.034;15.256;2023-04-06T01:01:17;5.85;;;2.30;;
70102;SDS011;57470;50.034;15.256;2023-04-06T01:03:43;5.00;;;2.17;;
70102;SDS011;57470;50.034;15.256;2023-04-06T01:06:09;5.30;;;1.58;;
70102;SDS011;57470;50.034;15.256;2023-04-06T01:08:35;4.03;;;1.33;;
70102;SDS011;57470;50.034;15.256;2023-04-06T01:11:01;3.47;;;1.25;;
70102;SDS011;57470;50.034;15.256;2023-04-06T01:13:26;3.22;;;1.20;;
70102;SDS011;57470;50.034;15.256;2023-04-06T01:15:52;3.13;;;1.00;;
70102;SDS011;57470;50.034;15.256;2023-04-06T01:18:18;3.93;;;1.87;;
70102;SDS011;57470;50.034;15.256;2023-04-06T01:20:43;2.83;;;1.30;;
70102;SDS011;57470;50.034;15.256;2023-04-06T01:23:08;3.33;;;1.23;;
70102;SDS011;57470;50.034;15.256;2023-04-06T01:25:34;3.97;;;1.80;;
70102;SDS011;57470;50.034;15.256;2023-04-06T01:27:59;4.30;;;1.30;;
70102;SDS011;57470;50.034;15.256;2023-04-06T01:30:25;3.72;;;1.85;;
70102;SDS011;57470;50.034;15.256;2023-04-06T01:32:51;7.90;;;2.03;;
70102;SDS011;57470;50.034;15.256;2023-04-06T01:35:17;3.60;;;1.77;;
70102;SDS011;57470;50.034;15.256;2023-04-06T01:37:43;5.25;;;2.45;;
70102;SDS011;57470;50.034;15.256;2023-04-06T01:40:09;5.17;;;1.67;;
70102;SDS011;57470;50.034;15.256;2023-04-06T01:42:36;5.50;;;3.00;;
70102;SDS011;57470;50.034;15.256;2023-04-06T01:45:02;3.87;;;1.10;;
70102;SDS011;57470;50.034;15.256;2023-04-06T01:47:27;7.15;;;2.20;;
70102;SDS011;57470;50.034;15.256;2023-04-06T01:49:53;4.73;;;2.13;;
70102;SDS011;57470;50.034;15.256;2023-04-06T01:52:18;4.27;;;1.73;;
70102;SDS011;57470;50.034;15.256;2023-04-06T01:54:43;4.33;;;2.03;;
70102;SDS011;57470;50.034;15.256;2023-04-06T01:57:10;4.70;;;2.20;;
70102;SDS011;57470;50.034;15.256;2023-04-06T01:59:35;3.00;;;1.17;;
70102;SDS011;57470;50.034;15.256;2023-04-06T02:02:01;6.55;;;2.35;;
70102;SDS011;57470;50.034;15.256;2023-04-06T02:04:27;3.75;;;1.63;;
70102;SDS011;57470;50.034;15.256;2023-04-06T02:06:54;3.60;;;1.20;;
70102;SDS011;57470;50.034;15.256;2023-04-06T02:09:21;12.38;;;1.75;;
70102;SDS011;57470;50.034;15.256;2023-04-06T02:11:49;3.15;;;1.38;;
70102;SDS011;57470;50.034;15.256;2023-04-06T02:14:15;6.13;;;2.57;;
70102;SDS011;57470;50.034;15.256;2023-04-06T02:16:42;6.72;;;2.15;;
70102;SDS011;57470;50.034;15.256;2023-04-06T02:19:08;4.15;;;1.85;;
70102;SDS011;57470;50.034;15.256;2023-04-06T02:21:35;5.22;;;2.10;;
70102;SDS011;57470;50.034;15.256;2023-04-06T02:24:02;9.63;;;2.45;;
70102;SDS011;57470;50.034;15.256;2023-04-06T02:26:29;3.87;;;1.73;;
70102;SDS011;57470;50.034;15.256;2023-04-06T02:28:56;3.28;;;1.08;;
70102;SDS011;57470;50.034;15.256;2023-04-06T02:31:23;6.80;;;3.10;;
70102;SDS011;57470;50.034;15.256;2023-04-06T02:33:50;3.85;;;1.60;;
70102;SDS011;57470;50.034;15.256;2023-04-06T02:36:16;4.68;;;1.92;;
70102;SDS011;57470;50.034;15.256;2023-04-06T02:38:43;6.97;;;2.73;;
70102;SDS011;57470;50.034;15.256;2023-04-06T02:41:10;4.03;;;1.90;;
70102;SDS011;57470;50.034;15.256;2023-04-06T02:43:36;6.45;;;2.08;;
70102;SDS011;57470;50.034;15.256;2023-04-06T02:46:04;4.93;;;1.83;;
70102;SDS011;57470;50.034;15.256;2023-04-06T02:48:31;3.63;;;1.20;;
70102;SDS011;57470;50.034;15.256;2023-04-06T02:51:00;4.80;;;1.30;;
70102;SDS011;57470;50.034;15.256;2023-04-06T02:53:28;2.97;;;1.42;;
70102;SDS011;57470;50.034;15.256;2023-04-06T02:55:54;11.90;;;2.90;;
70102;SDS011;57470;50.034;15.256;2023-04-06T02:58:20;5.13;;;2.08;;
70102;SDS011;57470;50.034;15.256;2023-04-06T03:00:46;4.97;;;1.77;;
70102;SDS011;57470;50.034;15.256;2023-04-06T03:03:11;11.40;;;2.63;;
70102;SDS011;57470;50.034;15.256;2023-04-06T03:05:37;5.20;;;2.03;;
70102;SDS011;57470;50.034;15.256;2023-04-06T03:08:02;6.93;;;1.98;;
70102;SDS011;57470;50.034;15.256;2023-04-06T03:10:27;10.50;;;2.78;;
70102;SDS011;57470;50.034;15.256;2023-04-06T03:12:53;5.70;;;2.20;;
70102;SDS011;57470;50.034;15.256;2023-04-06T03:15:18;5.63;;;1.73;;
70102;SDS011;57470;50.034;15.256;2023-04-06T03:17:44;6.87;;;2.33;;
70102;SDS011;57470;50.034;15.256;2023-04-06T03:20:09;5.73;;;2.57;;
70102;SDS011;57470;50.034;15.256;2023-04-06T03:22:35;6.22;;;2.28;;
70102;SDS011;57470;50.034;15.256;2023-04-06T03:25:00;4.87;;;2.27;;
70102;SDS011;57470;50.034;15.256;2023-04-06T03:27:26;7.03;;;2.33;;
70102;SDS011;57470;50.034;15.256;2023-04-06T03:29:52;3.25;;;1.42;;
70102;SDS011;57470;50.034;15.256;2023-04-06T03:32:17;4.43;;;1.90;;
70102;SDS011;57470;50.034;15.256;2023-04-06T03:34:42;3.35;;;1.13;;
70102;SDS011;57470;50.034;15.256;2023-04-06T03:37:08;4.68;;;1.75;;
70102;SDS011;57470;50.034;15.256;2023-04-06T03:39:33;5.30;;;2.70;;
70102;SDS011;57470;50.034;15.256;2023-04-06T03:41:58;3.50;;;1.40;;
70102;SDS011;57470;50.034;15.256;2023-04-06T03:44:24;9.13;;;2.30;;
70102;SDS011;57470;50.034;15.256;2023-04-06T03:46:49;3.33;;;1.42;;
70102;SDS011;57470;50.034;15.256;2023-04-06T03:49:15;6.50;;;2.43;;
70102;SDS011;57470;50.034;15.256;2023-04-06T03:51:40;6.20;;;3.00;;
70102;SDS011;57470;50.034;15.256;2023-04-06T03:54:05;5.70;;;2.13;;
70102;SDS011;57470;50.034;15.256;2023-04-06T03:56:31;3.77;;;1.13;;
70102;SDS011;57470;50.034;15.256;2023-04-06T03:58:56;3.72;;;1.48;;
70102;SDS011;57470;50.034;15.256;2023-04-06T04:01:22;5.10;;;2.80;;
70102;SDS011;57470;50.034;15.256;2023-04-06T04:03:47;4.87;;;2.03;;
70102;SDS011;57470;50.034;15.256;2023-04-06T04:06:13;4.40;;;1.57;;
70102;SDS011;57470;50.034;15.256;2023-04-06T04:08:38;7.93;;;3.30;;
70102;SDS011;57470;50.034;15.256;2023-04-06T04:11:04;6.38;;;2.00;;
70102;SDS011;57470;50.034;15.256;2023-04-06T04:13:29;4.03;;;2.13;;
70102;SDS011;57470;50.034;15.256;2023-04-06T04:15:55;4.60;;;2.40;;
70102;SDS011;57470;50.034;15.256;2023-04-06T04:18:20;3.90;;;1.27;;
70102;SDS011;57470;50.034;15.256;2023-04-06T04:20:45;3.70;;;1.52;;
70102;SDS011;57470;50.034;15.256;2023-04-06T04:23:11;8.90;;;1.83;;
70102;SDS011;57470;50.034;15.256;2023-04-06T04:25:37;3.63;;;1.30;;
70102;SDS011;57470;50.034;15.256;2023-04-06T04:28:03;5.07;;;2.00;;
70102;SDS011;57470;50.034;15.256;2023-04-06T04:30:29;6.53;;;1.93;;
70102;SDS011;57470;50.034;15.256;2023-04-06T04:32:54;4.88;;;2.30;;
70102;SDS011;57470;50.034;15.256;2023-04-06T04:35:20;10.30;;;2.40;;
70102;SDS011;57470;50.034;15.256;2023-04-06T04:37:45;4.90;;;2.60;;
70102;SDS011;57470;50.034;15.256;2023-04-06T04:40:11;4.20;;;1.63;;
70102;SDS011;57470;50.034;15.256;2023-04-06T04:42:36;3.40;;;1.77;;
70102;SDS011;57470;50.034;15.256;2023-04-06T04:45:02;3.10;;;0.90;;
70102;SDS011;57470;50.034;15.256;2023-04-06T04:47:27;5.57;;;2.30;;
70102;SDS011;57470;50.034;15.256;2023-04-06T04:49:53;4.07;;;1.63;;
70102;SDS011;57470;50.034;15.256;2023-04-06T04:52:18;3.83;;;1.53;;
70102;SDS011;57470;50.034;15.256;2023-04-06T04:54:44;8.13;;;2.38;;
70102;SDS011;57470;50.034;15.256;2023-04-06T04:57:11;2.57;;;0.87;;
70102;SDS011;57470;50.034;15.256;2023-04-06T04:59:37;3.72;;;1.38;;
70102;SDS011;57470;50.034;15.256;2023-04-06T05:02:02;4.17;;;1.73;;
70102;SDS011;57470;50.034;15.256;2023-04-06T05:04:28;4.80;;;1.93;;
70102;SDS011;57470;50.034;15.256;2023-04-06T05:07:06;6.83;;;1.77;;
70102;SDS011;57470;50.034;15.256;2023-04-06T05:09:33;4.65;;;1.77;;
70102;SDS011;57470;50.034;15.256;2023-04-06T05:11:58;4.77;;;3.03;;
70102;SDS011;57470;50.034;15.256;2023-04-06T05:14:25;4.97;;;1.70;;
70102;SDS011;57470;50.034;15.256;2023-04-06T05:16:51;4.45;;;2.10;;
70102;SDS011;57470;50.034;15.256;2023-04-06T05:19:16;6.00;;;2.43;;
70102;SDS011;57470;50.034;15.256;2023-04-06T05:21:42;7.67;;;1.77;;
70102;SDS011;57470;50.034;15.256;2023-04-06T05:24:07;4.65;;;1.75;;
70102;SDS011;57470;50.034;15.256;2023-04-06T05:26:33;6.63;;;2.27;;
70102;SDS011;57470;50.034;15.256;2023-04-06T05:28:59;6.45;;;2.45;;
70102;SDS011;57470;50.034;15.256;2023-04-06T05:31:24;5.53;;;2.47;;
70102;SDS011;57470;50.034;15.256;2023-04-06T05:33:50;3.53;;;1.77;;
70102;SDS011;57470;50.034;15.256;2023-04-06T05:36:15;3.90;;;1.67;;
70102;SDS011;57470;50.034;15.256;2023-04-06T05:38:41;9.90;;;2.60;;
70102;SDS011;57470;50.034;15.256;2023-04-06T05:41:06;5.43;;;2.27;;
70102;SDS011;57470;50.034;15.256;2023-04-06T05:43:32;5.37;;;2.77;;
70102;SDS011;57470;50.034;15.256;2023-04-06T05:45:57;8.30;;;3.10;;
70102;SDS011;57470;50.034;15.256;2023-04-06T05:48:23;3.80;;;0.90;;
70102;SDS011;57470;50.034;15.256;2023-04-06T05:50:48;7.20;;;3.97;;
70102;SDS011;57470;50.034;15.256;2023-04-06T05:53:15;7.43;;;2.90;;
70102;SDS011;57470;50.034;15.256;2023-04-06T05:55:41;6.40;;;2.43;;
70102;SDS011;57470;50.034;15.256;2023-04-06T05:58:06;3.70;;;1.30;;
70102;SDS011;57470;50.034;15.256;2023-04-06T06:00:31;7.78;;;2.65;;
70102;SDS011;57470;50.034;15.256;2023-04-06T06:02:57;6.00;;;2.93;;
70102;SDS011;57470;50.034;15.256;2023-04-06T06:05:23;4.70;;;2.13;;
70102;SDS011;57470;50.034;15.256;2023-04-06T06:07:48;7.72;;;2.75;;
70102;SDS011;57470;50.034;15.256;2023-04-06T06:10:14;6.00;;;2.57;;
70102;SDS011;57470;50.034;15.256;2023-04-06T06:12:40;15.07;;;4.55;;
70102;SDS011;57470;50.034;15.256;2023-04-06T06:15:05;8.07;;;3.17;;
70102;SDS011;57470;50.034;15.256;2023-04-06T06:17:31;6.53;;;2.80;;
70102;SDS011;57470;50.034;15.256;2023-04-06T06:19:56;7.80;;;2.67;;
70102;SDS011;57470;50.034;15.256;2023-04-06T06:22:22;7.20;;;1.87;;
70102;SDS011;57470;50.034;15.256;2023-04-06T06:24:47;6.70;;;2.67;;
70102;SDS011;57470;50.034;15.256;2023-04-06T06:27:14;4.70;;;1.85;;
70102;SDS011;57470;50.034;15.256;2023-04-06T06:29:40;7.78;;;3.72;;
70102;SDS011;57470;50.034;15.256;2023-04-06T06:32:06;8.40;;;3.30;;
70102;SDS011;57470;50.034;15.256;2023-04-06T06:34:33;7.78;;;2.95;;
70102;SDS011;57470;50.034;15.256;2023-04-06T06:36:58;11.83;;;3.10;;
70102;SDS011;57470;50.034;15.256;2023-04-06T06:39:23;12.10;;;3.63;;
70102;SDS011;57470;50.034;15.256;2023-04-06T06:41:49;7.85;;;2.05;;
70102;SDS011;57470;50.034;15.256;2023-04-06T06:44:15;12.40;;;3.27;;
70102;SDS011;57470;50.034;15.256;2023-04-06T06:46:41;11.88;;;3.83;;
70102;SDS011;57470;50.034;15.256;2023-04-06T06:49:06;8.07;;;4.43;;
70102;SDS011;57470;50.034;15.256;2023-04-06T06:51:32;12.25;;;4.28;;
70102;SDS011;57470;50.034;15.256;2023-04-06T06:53:57;12.47;;;4.47;;
70102;SDS011;57470;50.034;15.256;2023-04-06T06:56:23;10.60;;;5.33;;
70102;SDS011;57470;50.034;15.256;2023-04-06T06:58:48;9.57;;;3.83;;
70102;SDS011;57470;50.034;15.256;2023-04-06T07:01:13;9.77;;;4.93;;
70102;SDS011;57470;50.034;15.256;2023-04-06T07:03:39;10.68;;;4.15;;
70102;SDS011;57470;50.034;15.256;2023-04-06T07:06:04;8.43;;;3.93;;
70102;SDS011;57470;50.034;15.256;2023-04-06T07:08:30;7.70;;;4.23;;
70102;SDS011;57470;50.034;15.256;2023-04-06T07:10:55;9.00;;;4.50;;
70102;SDS011;57470;50.034;15.256;2023-04-06T07:13:21;11.80;;;4.35;;
70102;SDS011;57470;50.034;15.256;2023-04-06T07:15:50;10.83;;;4.80;;
70102;SDS011;57470;50.034;15.256;2023-04-06T07:18:16;10.98;;;4.85;;
70102;SDS011;57470;50.034;15.256;2023-04-06T07:20:43;10.45;;;4.85;;
70102;SDS011;57470;50.034;15.256;2023-04-06T07:23:09;8.25;;;2.97;;
70102;SDS011;57470;50.034;15.256;2023-04-06T07:25:34;11.77;;;4.63;;
70102;SDS011;57470;50.034;15.256;2023-04-06T07:28:00;11.90;;;4.43;;
70102;SDS011;57470;50.034;15.256;2023-04-06T07:30:25;13.20;;;3.67;;
70102;SDS011;57470;50.034;15.256;2023-04-06T07:32:52;8.13;;;3.33;;
70102;SDS011;57470;50.034;15.256;2023-04-06T07:35:20;12.60;;;3.47;;
70102;SDS011;57470;50.034;15.256;2023-04-06T07:37:45;9.35;;;3.63;;
70102;SDS011;57470;50.034;15.256;2023-04-06T07:40:11;9.60;;;3.30;;
70102;SDS011;57470;50.034;15.256;2023-04-06T07:42:37;10.05;;;3.38;;
70102;SDS011;57470;50.034;15.256;2023-04-06T07:45:02;9.40;;;3.50;;
70102;SDS011;57470;50.034;15.256;2023-04-06T07:47:28;7.68;;;3.40;;
70102;SDS011;57470;50.034;15.256;2023-04-06T07:49:54;8.13;;;3.07;;
70102;SDS011;57470;50.034;15.256;2023-04-06T07:52:23;9.60;;;2.95;;
70102;SDS011;57470;50.034;15.256;2023-04-06T07:54:48;9.90;;;3.73;;
70102;SDS011;57470;50.034;15.256;2023-04-06T07:57:14;7.93;;;2.97;;
70102;SDS011;57470;50.034;15.256;2023-04-06T07:59:39;8.53;;;4.07;;
70102;SDS011;57470;50.034;15.256;2023-04-06T08:02:05;8.33;;;3.00;;
70102;SDS011;57470;50.034;15.256;2023-04-06T08:04:31;7.13;;;3.22;;
70102;SDS011;57470;50.034;15.256;2023-04-06T08:06:56;8.13;;;2.83;;
70102;SDS011;57470;50.034;15.256;2023-04-06T08:09:21;8.23;;;3.47;;
70102;SDS011;57470;50.034;15.256;2023-04-06T08:11:47;6.57;;;3.22;;
70102;SDS011;57470;50.034;15.256;2023-04-06T08:14:13;12.20;;;3.33;;
70102;SDS011;57470;50.034;15.256;2023-04-06T08:16:40;9.93;;;4.60;;
70102;SDS011;57470;50.034;15.256;2023-04-06T08:19:05;5.85;;;3.35;;
70102;SDS011;57470;50.034;15.256;2023-04-06T08:21:34;8.13;;;2.50;;
70102;SDS011;57470;50.034;15.256;2023-04-06T08:24:00;18.38;;;3.90;;
70102;SDS011;57470;50.034;15.256;2023-04-06T08:26:25;7.28;;;3.10;;
70102;SDS011;57470;50.034;15.256;2023-04-06T08:28:51;6.90;;;2.80;;
70102;SDS011;57470;50.034;15.256;2023-04-06T08:31:16;8.03;;;3.47;;
70102;SDS011;57470;50.034;15.256;2023-04-06T08:33:42;8.13;;;2.87;;
70102;SDS011;57470;50.034;15.256;2023-04-06T08:36:08;8.40;;;2.67;;
70102;SDS011;57470;50.034;15.256;2023-04-06T08:38:35;6.20;;;2.08;;
70102;SDS011;57470;50.034;15.256;2023-04-06T08:41:05;12.52;;;3.22;;
70102;SDS011;57470;50.034;15.256;2023-04-06T08:43:32;6.28;;;2.53;;
70102;SDS011;57470;50.034;15.256;2023-04-06T08:46:01;6.90;;;2.78;;
70102;SDS011;57470;50.034;15.256;2023-04-06T08:48:26;6.30;;;2.20;;
70102;SDS011;57470;50.034;15.256;2023-04-06T08:50:52;7.40;;;2.72;;
70102;SDS011;57470;50.034;15.256;2023-04-06T08:53:19;8.50;;;3.53;;
70102;SDS011;57470;50.034;15.256;2023-04-06T08:55:45;8.13;;;3.33;;
70102;SDS011;57470;50.034;15.256;2023-04-06T08:58:11;8.53;;;2.87;;
70102;SDS011;57470;50.034;15.256;2023-04-06T09:00:37;7.32;;;3.53;;
70102;SDS011;57470;50.034;15.256;2023-04-06T09:03:04;10.67;;;3.20;;
70102;SDS011;57470;50.034;15.256;2023-04-06T09:05:32;13.50;;;2.47;;
70102;SDS011;57470;50.034;15.256;2023-04-06T09:07:57;6.40;;;2.33;;
70102;SDS011;57470;50.034;15.256;2023-04-06T09:10:23;7.10;;;2.77;;
70102;SDS011;57470;50.034;15.256;2023-04-06T09:12:50;5.57;;;1.75;;
70102;SDS011;57470;50.034;15.256;2023-04-06T09:15:19;6.43;;;1.77;;
70102;SDS011;57470;50.034;15.256;2023-04-06T09:17:46;8.18;;;3.30;;
70102;SDS011;57470;50.034;15.256;2023-04-06T09:20:11;6.63;;;1.53;;
70102;SDS011;57470;50.034;15.256;2023-04-06T09:22:37;4.72;;;1.42;;
70102;SDS011;57470;50.034;15.256;2023-04-06T09:25:04;5.23;;;1.77;;
70102;SDS011;57470;50.034;15.256;2023-04-06T09:27:35;4.97;;;1.90;;
70102;SDS011;57470;50.034;15.256;2023-04-06T09:30:05;5.35;;;1.88;;
70102;SDS011;57470;50.034;15.256;2023-04-06T09:32:32;6.43;;;1.83;;
70102;SDS011;57470;50.034;15.256;2023-04-06T09:35:09;3.13;;;0.93;;
70102;SDS011;57470;50.034;15.256;2023-04-06T09:37:35;5.37;;;1.63;;
70102;SDS011;57470;50.034;15.256;2023-04-06T09:40:04;6.85;;;1.40;;
70102;SDS011;57470;50.034;15.256;2023-04-06T09:42:31;5.30;;;2.20;;
70102;SDS011;57470;50.034;15.256;2023-04-06T09:44:56;3.50;;;1.27;;
70102;SDS011;57470;50.034;15.256;2023-04-06T09:47:22;4.10;;;1.10;;
70102;SDS011;57470;50.034;15.256;2023-04-06T09:49:52;4.80;;;1.77;;
70102;SDS011;57470;50.034;15.256;2023-04-06T09:52:22;6.03;;;1.77;;
70102;SDS011;57470;50.034;15.256;2023-04-06T09:54:51;5.43;;;1.40;;
70102;SDS011;57470;50.034;15.256;2023-04-06T09:57:32;4.07;;;1.50;;
70102;SDS011;57470;50.034;15.256;2023-04-06T10:00:02;4.72;;;1.70;;
70102;SDS011;57470;50.034;15.256;2023-04-06T10:02:51;3.50;;;1.23;;
70102;SDS011;57470;50.034;15.256;2023-04-06T10:05:42;4.00;;;1.10;;
70102;SDS011;57470;50.034;15.256;2023-04-06T10:08:11;5.33;;;1.60;;
70102;SDS011;57470;50.034;15.256;2023-04-06T10:10:38;7.40;;;2.38;;
70102;SDS011;57470;50.034;15.256;2023-04-06T10:13:04;4.28;;;1.42;;
70102;SDS011;57470;50.034;15.256;2023-04-06T10:15:30;5.53;;;1.60;;
70102;SDS011;57470;50.034;15.256;2023-04-06T10:17:57;7.70;;;1.67;;
70102;SDS011;57470;50.034;15.256;2023-04-06T10:23:13;7.00;;;2.33;;
70102;SDS011;57470;50.034;15.256;2023-04-06T10:25:55;5.75;;;1.60;;
70102;SDS011;57470;50.034;15.256;2023-04-06T10:28:23;5.93;;;1.83;;
70102;SDS011;57470;50.034;15.256;2023-04-06T10:30:49;6.00;;;2.67;;
70102;SDS011;57470;50.034;15.256;2023-04-06T10:35:40;4.88;;;1.60;;
70102;SDS011;57470;50.034;15.256;2023-04-06T10:38:05;5.47;;;2.03;;
70102;SDS011;57470;50.034;15.256;2023-04-06T10:40:32;5.95;;;2.05;;
70102;SDS011;57470;50.034;15.256;2023-04-06T10:43:11;5.72;;;1.90;;
70102;SDS011;57470;50.034;15.256;2023-04-06T10:45:38;4.45;;;1.58;;
70102;SDS011;57470;50.034;15.256;2023-04-06T10:48:14;5.13;;;2.05;;
70102;SDS011;57470;50.034;15.256;2023-04-06T10:50:53;5.93;;;2.40;;
70102;SDS011;57470;50.034;15.256;2023-04-06T10:53:22;5.20;;;1.67;;
70102;SDS011;57470;50.034;15.256;2023-04-06T10:55:52;5.10;;;1.55;;
70102;SDS011;57470;50.034;15.256;2023-04-06T10:58:20;5.53;;;1.65;;
70102;SDS011;57470;50.034;15.256;2023-04-06T11:00:50;5.40;;;2.30;;
70102;SDS011;57470;50.034;15.256;2023-04-06T11:03:16;6.03;;;1.90;;
70102;SDS011;57470;50.034;15.256;2023-04-06T11:05:45;4.47;;;2.10;;
70102;SDS011;57470;50.034;15.256;2023-04-06T11:08:21;4.32;;;1.40;;
70102;SDS011;57470;50.034;15.256;2023-04-06T11:10:50;9.27;;;1.40;;
70102;SDS011;57470;50.034;15.256;2023-04-06T11:13:16;5.70;;;2.10;;
70102;SDS011;57470;50.034;15.256;2023-04-06T11:15:42;5.22;;;2.00;;
70102;SDS011;57470;50.034;15.256;2023-04-06T11:18:07;5.70;;;1.40;;
70102;SDS011;57470;50.034;15.256;2023-04-06T11:20:33;4.78;;;2.17;;
70102;SDS011;57470;50.034;15.256;2023-04-06T11:22:58;4.93;;;1.47;;
70102;SDS011;57470;50.034;15.256;2023-04-06T11:25:24;4.57;;;1.73;;
70102;SDS011;57470;50.034;15.256;2023-04-06T11:27:52;4.53;;;1.37;;
70102;SDS011;57470;50.034;15.256;2023-04-06T11:30:18;4.28;;;1.30;;
70102;SDS011;57470;50.034;15.256;2023-04-06T11:32:45;5.05;;;1.50;;
70102;SDS011;57470;50.034;15.256;2023-04-06T11:35:20;5.13;;;1.07;;
70102;SDS011;57470;50.034;15.256;2023-04-06T11:37:50;5.72;;;2.15;;
70102;SDS011;57470;50.034;15.256;2023-04-06T11:40:20;5.22;;;1.60;;
70102;SDS011;57470;50.034;15.256;2023-04-06T11:42:53;4.72;;;1.50;;
70102;SDS011;57470;50.034;15.256;2023-04-06T11:45:20;3.70;;;1.25;;
70102;SDS011;57470;50.034;15.256;2023-04-06T11:47:54;4.07;;;1.37;;
70102;SDS011;57470;50.034;15.256;2023-04-06T11:50:21;4.10;;;1.30;;
70102;SDS011;57470;50.034;15.256;2023-04-06T11:52:46;9.73;;;1.93;;
70102;SDS011;57470;50.034;15.256;2023-04-06T11:55:23;4.97;;;1.90;;
70102;SDS011;57470;50.034;15.256;2023-04-06T11:57:49;4.70;;;1.50;;
70102;SDS011;57470;50.034;15.256;2023-04-06T12:00:16;6.72;;;1.27;;
70102;SDS011;57470;50.034;15.256;2023-04-06T12:02:45;5.07;;;1.65;;
70102;SDS011;57470;50.034;15.256;2023-04-06T12:05:11;5.32;;;2.08;;
70102;SDS011;57470;50.034;15.256;2023-04-06T12:07:37;5.83;;;1.97;;
70102;SDS011;57470;50.034;15.256;2023-04-06T12:10:02;5.03;;;1.50;;
70102;SDS011;57470;50.034;15.256;2023-04-06T12:12:29;6.13;;;2.07;;
70102;SDS011;57470;50.034;15.256;2023-04-06T12:14:55;5.28;;;2.20;;
70102;SDS011;57470;50.034;15.256;2023-04-06T12:17:20;4.03;;;1.48;;
70102;SDS011;57470;50.034;15.256;2023-04-06T12:19:46;5.17;;;1.47;;
70102;SDS011;57470;50.034;15.256;2023-04-06T12:22:11;6.83;;;2.00;;
70102;SDS011;57470;50.034;15.256;2023-04-06T12:24:37;8.35;;;1.60;;
70102;SDS011;57470;50.034;15.256;2023-04-06T12:27:02;3.97;;;1.40;;
70102;SDS011;57470;50.034;15.256;2023-04-06T12:29:28;4.93;;;1.43;;
70102;SDS011;57470;50.034;15.256;2023-04-06T12:31:53;5.00;;;1.67;;
70102;SDS011;57470;50.034;15.256;2023-04-06T12:34:19;4.88;;;1.63;;
70102;SDS011;57470;50.034;15.256;2023-04-06T12:36:44;4.97;;;1.37;;
70102;SDS011;57470;50.034;15.256;2023-04-06T12:39:10;3.83;;;1.13;;
70102;SDS011;57470;50.034;15.256;2023-04-06T12:41:36;4.63;;;1.65;;
70102;SDS011;57470;50.034;15.256;2023-04-06T12:44:02;5.57;;;1.70;;
70102;SDS011;57470;50.034;15.256;2023-04-06T12:46:27;6.03;;;2.05;;
70102;SDS011;57470;50.034;15.256;2023-04-06T12:48:55;3.73;;;1.47;;
70102;SDS011;57470;50.034;15.256;2023-04-06T12:51:22;4.47;;;1.70;;
70102;SDS011;57470;50.034;15.256;2023-04-06T12:53:48;7.88;;;2.28;;
70102;SDS011;57470;50.034;15.256;2023-04-06T12:56:14;5.27;;;1.77;;
70102;SDS011;57470;50.034;15.256;2023-04-06T12:58:42;3.95;;;1.30;;
70102;SDS011;57470;50.034;15.256;2023-04-06T13:01:08;4.40;;;1.43;;
70102;SDS011;57470;50.034;15.256;2023-04-06T13:03:34;4.45;;;1.60;;
70102;SDS011;57470;50.034;15.256;2023-04-06T13:05:59;5.67;;;1.63;;
70102;SDS011;57470;50.034;15.256;2023-04-06T13:08:26;3.90;;;1.13;;
70102;SDS011;57470;50.034;15.256;2023-04-06T13:10:52;4.40;;;1.23;;
70102;SDS011;57470;50.034;15.256;2023-04-06T13:13:22;5.25;;;1.95;;
70102;SDS011;57470;50.034;15.256;2023-04-06T13:15:49;4.60;;;1.13;;
70102;SDS011;57470;50.034;15.256;2023-04-06T13:18:15;3.83;;;1.23;;
70102;SDS011;57470;50.034;15.256;2023-04-06T13:20:41;4.40;;;1.50;;
70102;SDS011;57470;50.034;15.256;2023-04-06T13:23:07;4.37;;;1.63;;
70102;SDS011;57470;50.034;15.256;2023-04-06T13:25:33;3.92;;;1.23;;
70102;SDS011;57470;50.034;15.256;2023-04-06T13:27:58;7.70;;;2.10;;
70102;SDS011;57470;50.034;15.256;2023-04-06T13:30:24;5.63;;;1.33;;
70102;SDS011;57470;50.034;15.256;2023-04-06T13:32:50;8.25;;;1.33;;
70102;SDS011;57470;50.034;15.256;2023-04-06T13:35:16;4.43;;;1.27;;
70102;SDS011;57470;50.034;15.256;2023-04-06T13:37:41;4.45;;;1.30;;
70102;SDS011;57470;50.034;15.256;2023-04-06T13:40:07;4.80;;;1.37;;
70102;SDS011;57470;50.034;15.256;2023-04-06T13:42:33;4.50;;;1.60;;
70102;SDS011;57470;50.034;15.256;2023-04-06T13:45:00;3.50;;;1.02;;
70102;SDS011;57470;50.034;15.256;2023-04-06T13:47:25;3.97;;;1.20;;
70102;SDS011;57470;50.034;15.256;2023-04-06T13:49:51;4.40;;;1.63;;
70102;SDS011;57470;50.034;15.256;2023-04-06T13:52:18;4.65;;;1.15;;
70102;SDS011;57470;50.034;15.256;2023-04-06T13:54:43;4.75;;;1.60;;
70102;SDS011;57470;50.034;15.256;2023-04-06T13:57:09;4.23;;;1.53;;
70102;SDS011;57470;50.034;15.256;2023-04-06T13:59:35;4.32;;;1.63;;
70102;SDS011;57470;50.034;15.256;2023-04-06T14:02:04;3.30;;;0.80;;
70102;SDS011;57470;50.034;15.256;2023-04-06T14:04:32;5.43;;;1.75;;
70102;SDS011;57470;50.034;15.256;2023-04-06T14:06:58;6.45;;;2.10;;
70102;SDS011;57470;50.034;15.256;2023-04-06T14:09:24;4.55;;;1.80;;
70102;SDS011;57470;50.034;15.256;2023-04-06T14:11:50;4.50;;;1.43;;
70102;SDS011;57470;50.034;15.256;2023-04-06T14:14:16;6.32;;;1.20;;
70102;SDS011;57470;50.034;15.256;2023-04-06T14:16:42;3.50;;;0.90;;
70102;SDS011;57470;50.034;15.256;2023-04-06T14:19:11;3.97;;;1.33;;
70102;SDS011;57470;50.034;15.256;2023-04-06T14:21:38;3.65;;;1.35;;
70102;SDS011;57470;50.034;15.256;2023-04-06T14:24:04;3.80;;;1.10;;
70102;SDS011;57470;50.034;15.256;2023-04-06T14:26:34;5.88;;;1.98;;
70102;SDS011;57470;50.034;15.256;2023-04-06T14:29:00;5.05;;;2.00;;
70102;SDS011;57470;50.034;15.256;2023-04-06T14:31:26;8.10;;;1.90;;
70102;SDS011;57470;50.034;15.256;2023-04-06T14:33:51;5.00;;;1.53;;